sensor_id;sensor_type;location;lat;lon;timestamp;temperature;humidity
28677;DHT22;15858;48.338;11.078;2023-05-07T00:02:14;12.40;99.90
28677;DHT22;15858;48.338;11.078;2023-05-07T00:04:40;12.30;99.90
28677;DHT22;15858;48.338;11.078;2023-05-07T00:07:07;12.20;99.90
28677;DHT22;15858;48.338;11.078;2023-05-07T00:09:34;12.20;99.90
28677;DHT22;15858;48.338;11.078;2023-05-07T00:12:01;12.20;99.90
28677;DHT22;15858;48.338;11.078;2023-05-07T00:14:27;12.20;99.90
28677;DHT22;15858;48.338;11.078;2023-05-07T00:16:54;12.30;99.90
28677;DHT22;15858;48.338;11.078;2023-05-07T00:19:21;12.30;99.90
28677;DHT22;15858;48.338;11.078;2023-05-07T00:21:48;12.30;99.90
28677;DHT22;15858;48.338;11.078;2023-05-07T00:24:14;12.30;99.90
28677;DHT22;15858;48.338;11.078;2023-05-07T00:26:41;12.30;99.90
28677;DHT22;15858;48.338;11.078;2023-05-07T00:29:08;12.20;99.90
28677;DHT22;15858;48.338;11.078;2023-05-07T00:31:34;12.20;99.90
28677;DHT22;15858;48.338;11.078;2023-05-07T00:34:01;12.20;99.90
28677;DHT22;15858;48.338;11.078;2023-05-07T00:36:28;12.10;99.90
28677;DHT22;15858;48.338;11.078;2023-05-07T00:38:56;12.00;99.90
28677;DHT22;15858;48.338;11.078;2023-05-07T00:41:23;12.00;99.90
28677;DHT22;15858;48.338;11.078;2023-05-07T00:43:49;12.00;99.90
28677;DHT22;15858;48.338;11.078;2023-05-07T00:46:16;12.00;99.90
28677;DHT22;15858;48.338;11.078;2023-05-07T00:48:43;12.00;99.90
28677;DHT22;15858;48.338;11.078;2023-05-07T00:51:10;12.00;99.90
28677;DHT22;15858;48.338;11.078;2023-05-07T00:53:38;11.90;99.90
28677;DHT22;15858;48.338;11.078;2023-05-07T00:56:05;11.90;99.90
28677;DHT22;15858;48.338;11.078;2023-05-07T00:58:33;12.00;99.90
28677;DHT22;15858;48.338;11.078;2023-05-07T01:01:00;12.00;99.90
28677;DHT22;15858;48.338;11.078;2023-05-07T01:03:26;12.00;99.90
28677;DHT22;15858;48.338;11.078;2023-05-07T01:05:54;12.00;99.90
28677;DHT22;15858;48.338;11.078;2023-05-07T01:08:22;12.10;99.90
28677;DHT22;15858;48.338;11.078;2023-05-07T01:10:49;12.10;99.90
28677;DHT22;15858;48.338;11.078;2023-05-07T01:13:16;12.10;99.90
28677;DHT22;15858;48.338;11.078;2023-05-07T01:15:43;12.20;99.90
28677;DHT22;15858;48.338;11.078;2023-05-07T01:18:10;12.20;99.90
28677;DHT22;15858;48.338;11.078;2023-05-07T01:20:36;12.20;99.90
28677;DHT22;15858;48.338;11.078;2023-05-07T01:23:03;12.20;99.90
28677;DHT22;15858;48.338;11.078;2023-05-07T01:25:31;12.10;99.90
28677;DHT22;15858;48.338;11.078;2023-05-07T01:27:57;12.10;99.90
28677;DHT22;15858;48.338;11.078;2023-05-07T01:30:24;12.10;99.90
28677;DHT22;15858;48.338;11.078;2023-05-07T01:32:53;12.10;99.90
28677;DHT22;15858;48.338;11.078;2023-05-07T01:35:28;12.00;99.90
28677;DHT22;15858;48.338;11.078;2023-05-07T01:37:56;11.90;99.90
28677;DHT22;15858;48.338;11.078;2023-05-07T01:40:24;11.80;99.90
28677;DHT22;15858;48.338;11.078;2023-05-07T01:42:51;11.80;99.90
28677;DHT22;15858;48.338;11.078;2023-05-07T01:45:18;11.70;99.90
28677;DHT22;15858;48.338;11.078;2023-05-07T01:47:44;11.60;99.90
28677;DHT22;15858;48.338;11.078;2023-05-07T01:50:12;11.60;99.90
28677;DHT22;15858;48.338;11.078;2023-05-07T01:52:39;11.70;99.90
28677;DHT22;15858;48.338;11.078;2023-05-07T01:55:06;11.70;99.90
28677;DHT22;15858;48.338;11.078;2023-05-07T01:57:33;11.70;99.90
28677;DHT22;15858;48.338;11.078;2023-05-07T01:59:59;11.80;99.90
28677;DHT22;15858;48.338;11.078;2023-05-07T02:02:26;11.80;99.90
28677;DHT22;15858;48.338;11.078;2023-05-07T02:04:53;11.80;99.90
28677;DHT22;15858;48.338;11.078;2023-05-07T02:07:19;11.80;99.90
28677;DHT22;15858;48.338;11.078;2023-05-07T02:09:46;11.80;99.90
28677;DHT22;15858;48.338;11.078;2023-05-07T02:12:12;11.70;99.90
28677;DHT22;15858;48.338;11.078;2023-05-07T02:14:39;11.60;99.90
28677;DHT22;15858;48.338;11.078;2023-05-07T02:17:06;11.60;99.90
28677;DHT22;15858;48.338;11.078;2023-05-07T02:19:32;11.60;99.90
28677;DHT22;15858;48.338;11.078;2023-05-07T02:21:59;11.60;99.90
28677;DHT22;15858;48.338;11.078;2023-05-07T02:24:25;11.60;99.90
28677;DHT22;15858;48.338;11.078;2023-05-07T02:26:52;11.60;99.90
28677;DHT22;15858;48.338;11.078;2023-05-07T02:29:19;11.60;99.90
28677;DHT22;15858;48.338;11.078;2023-05-07T02:31:45;11.60;99.90
28677;DHT22;15858;48.338;11.078;2023-05-07T02:34:12;11.60;99.90
28677;DHT22;15858;48.338;11.078;2023-05-07T02:36:39;11.60;99.90
28677;DHT22;15858;48.338;11.078;2023-05-07T02:39:05;11.70;99.90
28677;DHT22;15858;48.338;11.078;2023-05-07T02:41:32;11.70;99.90
28677;DHT22;15858;48.338;11.078;2023-05-07T02:43:58;11.70;99.90
28677;DHT22;15858;48.338;11.078;2023-05-07T02:46:25;11.70;99.90
28677;DHT22;15858;48.338;11.078;2023-05-07T02:48:52;11.70;99.90
28677;DHT22;15858;48.338;11.078;2023-05-07T02:51:22;11.70;99.90
28677;DHT22;15858;48.338;11.078;2023-05-07T02:53:51;11.60;99.90
28677;DHT22;15858;48.338;11.078;2023-05-07T02:56:18;11.60;99.90
28677;DHT22;15858;48.338;11.078;2023-05-07T02:58:44;11.50;99.90
28677;DHT22;15858;48.338;11.078;2023-05-07T03:01:11;11.50;99.90
28677;DHT22;15858;48.338;11.078;2023-05-07T03:03:38;11.50;99.90
28677;DHT22;15858;48.338;11.078;2023-05-07T03:06:05;11.40;99.90
28677;DHT22;15858;48.338;11.078;2023-05-07T03:08:32;11.40;99.90
28677;DHT22;15858;48.338;11.078;2023-05-07T03:10:59;11.40;99.90
28677;DHT22;15858;48.338;11.078;2023-05-07T03:13:25;11.40;99.90
28677;DHT22;15858;48.338;11.078;2023-05-07T03:15:52;11.40;99.90
28677;DHT22;15858;48.338;11.078;2023-05-07T03:18:19;11.40;99.90
28677;DHT22;15858;48.338;11.078;2023-05-07T03:20:47;11.30;99.90
28677;DHT22;15858;48.338;11.078;2023-05-07T03:23:14;11.30;99.90
28677;DHT22;15858;48.338;11.078;2023-05-07T03:25:41;11.30;99.90
28677;DHT22;15858;48.338;11.078;2023-05-07T03:28:07;11.30;99.90
28677;DHT22;15858;48.338;11.078;2023-05-07T03:30:34;11.20;99.90
28677;DHT22;15858;48.338;11.078;2023-05-07T03:33:00;11.20;99.90
28677;DHT22;15858;48.338;11.078;2023-05-07T03:35:27;11.30;99.90
28677;DHT22;15858;48.338;11.078;2023-05-07T03:37:54;11.30;99.90
28677;DHT22;15858;48.338;11.078;2023-05-07T03:40:20;11.30;99.90
28677;DHT22;15858;48.338;11.078;2023-05-07T03:42:47;11.30;99.90
28677;DHT22;15858;48.338;11.078;2023-05-07T03:45:14;11.40;99.90
28677;DHT22;15858;48.338;11.078;2023-05-07T03:47:40;11.40;99.90
28677;DHT22;15858;48.338;11.078;2023-05-07T03:50:07;11.30;99.90
28677;DHT22;15858;48.338;11.078;2023-05-07T03:52:34;11.30;99.90
28677;DHT22;15858;48.338;11.078;2023-05-07T03:55:01;11.30;99.90
28677;DHT22;15858;48.338;11.078;2023-05-07T03:57:27;11.20;99.90
28677;DHT22;15858;48.338;11.078;2023-05-07T03:59:54;11.20;99.90
28677;DHT22;15858;48.338;11.078;2023-05-07T04:02:20;11.20;99.90
28677;DHT22;15858;48.338;11.078;2023-05-07T04:04:48;11.20;99.90
28677;DHT22;15858;48.338;11.078;2023-05-07T04:07:15;11.20;99.90
28677;DHT22;15858;48.338;11.078;2023-05-07T04:09:42;11.20;99.90
28677;DHT22;15858;48.338;11.078;2023-05-07T04:12:08;11.20;99.90
28677;DHT22;15858;48.338;11.078;2023-05-07T04:14:35;11.20;99.90
28677;DHT22;15858;48.338;11.078;2023-05-07T04:17:01;11.10;99.90
28677;DHT22;15858;48.338;11.078;2023-05-07T04:19:28;11.10;99.90
28677;DHT22;15858;48.338;11.078;2023-05-07T04:21:55;11.10;99.90
28677;DHT22;15858;48.338;11.078;2023-05-07T04:24:21;11.10;99.90
28677;DHT22;15858;48.338;11.078;2023-05-07T04:26:48;11.10;99.90
28677;DHT22;15858;48.338;11.078;2023-05-07T04:29:14;11.10;99.90
28677;DHT22;15858;48.338;11.078;2023-05-07T04:31:41;11.10;99.90
28677;DHT22;15858;48.338;11.078;2023-05-07T04:34:08;11.10;99.90
28677;DHT22;15858;48.338;11.078;2023-05-07T04:36:34;11.00;99.90
28677;DHT22;15858;48.338;11.078;2023-05-07T04:39:02;11.00;99.90
28677;DHT22;15858;48.338;11.078;2023-05-07T04:41:29;11.10;99.90
28677;DHT22;15858;48.338;11.078;2023-05-07T04:43:56;11.10;99.90
28677;DHT22;15858;48.338;11.078;2023-05-07T04:46:22;11.10;99.90
28677;DHT22;15858;48.338;11.078;2023-05-07T04:48:49;11.10;99.90
28677;DHT22;15858;48.338;11.078;2023-05-07T04:51:16;11.10;99.90
28677;DHT22;15858;48.338;11.078;2023-05-07T04:53:42;11.20;99.90
28677;DHT22;15858;48.338;11.078;2023-05-07T04:56:09;11.20;99.90
28677;DHT22;15858;48.338;11.078;2023-05-07T04:58:35;11.30;99.90
28677;DHT22;15858;48.338;11.078;2023-05-07T05:01:02;11.40;99.90
28677;DHT22;15858;48.338;11.078;2023-05-07T05:03:29;11.60;99.90
28677;DHT22;15858;48.338;11.078;2023-05-07T05:05:55;11.80;99.90
28677;DHT22;15858;48.338;11.078;2023-05-07T05:08:22;11.80;99.90
28677;DHT22;15858;48.338;11.078;2023-05-07T05:10:49;11.80;99.90
28677;DHT22;15858;48.338;11.078;2023-05-07T05:13:15;12.00;99.90
28677;DHT22;15858;48.338;11.078;2023-05-07T05:15:42;12.00;99.90
28677;DHT22;15858;48.338;11.078;2023-05-07T05:18:09;12.10;99.90
28677;DHT22;15858;48.338;11.078;2023-05-07T05:20:35;12.20;99.90
28677;DHT22;15858;48.338;11.078;2023-05-07T05:23:02;12.40;99.90
28677;DHT22;15858;48.338;11.078;2023-05-07T05:25:29;12.50;99.90
28677;DHT22;15858;48.338;11.078;2023-05-07T05:27:55;12.60;99.90
28677;DHT22;15858;48.338;11.078;2023-05-07T05:30:22;12.80;99.90
28677;DHT22;15858;48.338;11.078;2023-05-07T05:32:48;12.90;99.90
28677;DHT22;15858;48.338;11.078;2023-05-07T05:35:15;13.10;99.90
28677;DHT22;15858;48.338;11.078;2023-05-07T05:37:42;13.40;99.90
28677;DHT22;15858;48.338;11.078;2023-05-07T05:40:09;13.50;99.90
28677;DHT22;15858;48.338;11.078;2023-05-07T05:42:36;13.60;99.90
28677;DHT22;15858;48.338;11.078;2023-05-07T05:45:03;13.60;99.90
28677;DHT22;15858;48.338;11.078;2023-05-07T05:47:29;13.60;99.90
28677;DHT22;15858;48.338;11.078;2023-05-07T05:49:56;13.60;99.90
28677;DHT22;15858;48.338;11.078;2023-05-07T05:52:22;13.90;99.90
28677;DHT22;15858;48.338;11.078;2023-05-07T05:54:49;14.10;99.90
28677;DHT22;15858;48.338;11.078;2023-05-07T05:57:16;14.10;99.90
28677;DHT22;15858;48.338;11.078;2023-05-07T05:59:43;14.20;99.90
28677;DHT22;15858;48.338;11.078;2023-05-07T06:02:10;14.30;99.90
28677;DHT22;15858;48.338;11.078;2023-05-07T06:04:36;14.50;99.90
28677;DHT22;15858;48.338;11.078;2023-05-07T06:07:03;14.60;99.90
28677;DHT22;15858;48.338;11.078;2023-05-07T06:09:30;14.70;99.90
28677;DHT22;15858;48.338;11.078;2023-05-07T06:11:56;14.70;99.90
28677;DHT22;15858;48.338;11.078;2023-05-07T06:14:26;14.80;99.90
28677;DHT22;15858;48.338;11.078;2023-05-07T06:16:52;14.90;99.90
28677;DHT22;15858;48.338;11.078;2023-05-07T06:19:19;14.90;99.90
28677;DHT22;15858;48.338;11.078;2023-05-07T06:21:46;14.80;99.90
28677;DHT22;15858;48.338;11.078;2023-05-07T06:24:12;15.00;99.90
28677;DHT22;15858;48.338;11.078;2023-05-07T06:26:39;15.10;99.90
28677;DHT22;15858;48.338;11.078;2023-05-07T06:29:06;15.20;99.90
28677;DHT22;15858;48.338;11.078;2023-05-07T06:31:33;15.30;99.90
28677;DHT22;15858;48.338;11.078;2023-05-07T06:33:59;15.40;99.90
28677;DHT22;15858;48.338;11.078;2023-05-07T06:36:26;15.40;99.90
28677;DHT22;15858;48.338;11.078;2023-05-07T06:38:53;15.50;99.90
28677;DHT22;15858;48.338;11.078;2023-05-07T06:41:19;15.60;99.90
28677;DHT22;15858;48.338;11.078;2023-05-07T06:43:46;15.70;99.90
28677;DHT22;15858;48.338;11.078;2023-05-07T06:46:12;15.80;99.90
28677;DHT22;15858;48.338;11.078;2023-05-07T06:48:39;16.00;99.90
28677;DHT22;15858;48.338;11.078;2023-05-07T06:51:06;16.00;99.90
28677;DHT22;15858;48.338;11.078;2023-05-07T06:53:32;16.20;99.90
28677;DHT22;15858;48.338;11.078;2023-05-07T06:55:59;16.20;99.90
28677;DHT22;15858;48.338;11.078;2023-05-07T06:58:25;16.30;99.90
28677;DHT22;15858;48.338;11.078;2023-05-07T07:00:52;16.50;99.90
28677;DHT22;15858;48.338;11.078;2023-05-07T07:03:18;16.60;99.90
28677;DHT22;15858;48.338;11.078;2023-05-07T07:05:45;16.70;99.90
28677;DHT22;15858;48.338;11.078;2023-05-07T07:08:12;16.70;99.90
28677;DHT22;15858;48.338;11.078;2023-05-07T07:10:38;16.80;99.90
28677;DHT22;15858;48.338;11.078;2023-05-07T07:13:05;16.90;99.90
28677;DHT22;15858;48.338;11.078;2023-05-07T07:15:31;17.00;99.90
28677;DHT22;15858;48.338;11.078;2023-05-07T07:17:58;17.10;99.90
28677;DHT22;15858;48.338;11.078;2023-05-07T07:20:25;17.20;99.90
28677;DHT22;15858;48.338;11.078;2023-05-07T07:22:52;17.40;99.90
28677;DHT22;15858;48.338;11.078;2023-05-07T07:25:18;17.40;99.90
28677;DHT22;15858;48.338;11.078;2023-05-07T07:27:45;17.50;99.90
28677;DHT22;15858;48.338;11.078;2023-05-07T07:30:11;17.60;99.90
28677;DHT22;15858;48.338;11.078;2023-05-07T07:32:39;17.60;99.90
28677;DHT22;15858;48.338;11.078;2023-05-07T07:35:06;17.70;99.90
28677;DHT22;15858;48.338;11.078;2023-05-07T07:37:33;17.70;99.90
28677;DHT22;15858;48.338;11.078;2023-05-07T07:39:59;17.80;99.90
28677;DHT22;15858;48.338;11.078;2023-05-07T07:42:26;17.90;99.90
28677;DHT22;15858;48.338;11.078;2023-05-07T07:44:53;17.90;99.90
28677;DHT22;15858;48.338;11.078;2023-05-07T07:47:19;17.90;99.90
28677;DHT22;15858;48.338;11.078;2023-05-07T07:49:46;18.00;99.90
28677;DHT22;15858;48.338;11.078;2023-05-07T07:52:12;18.10;99.90
28677;DHT22;15858;48.338;11.078;2023-05-07T07:54:39;18.20;99.90
28677;DHT22;15858;48.338;11.078;2023-05-07T07:57:06;18.40;99.90
28677;DHT22;15858;48.338;11.078;2023-05-07T07:59:32;18.60;99.90
28677;DHT22;15858;48.338;11.078;2023-05-07T08:01:59;18.70;99.90
28677;DHT22;15858;48.338;11.078;2023-05-07T08:04:25;18.60;99.90
28677;DHT22;15858;48.338;11.078;2023-05-07T08:06:52;18.80;99.90
28677;DHT22;15858;48.338;11.078;2023-05-07T08:09:19;18.90;99.90
28677;DHT22;15858;48.338;11.078;2023-05-07T08:11:45;18.90;99.90
28677;DHT22;15858;48.338;11.078;2023-05-07T08:14:12;19.00;99.90
28677;DHT22;15858;48.338;11.078;2023-05-07T08:16:39;19.20;99.90
28677;DHT22;15858;48.338;11.078;2023-05-07T08:19:05;19.20;99.90
28677;DHT22;15858;48.338;11.078;2023-05-07T08:21:32;19.20;99.90
28677;DHT22;15858;48.338;11.078;2023-05-07T08:24:00;19.20;99.90
28677;DHT22;15858;48.338;11.078;2023-05-07T08:26:26;19.30;99.90
28677;DHT22;15858;48.338;11.078;2023-05-07T08:28:53;19.30;99.90
28677;DHT22;15858;48.338;11.078;2023-05-07T08:31:20;19.30;99.90
28677;DHT22;15858;48.338;11.078;2023-05-07T08:33:47;19.50;99.90
28677;DHT22;15858;48.338;11.078;2023-05-07T08:36:13;19.60;99.90
28677;DHT22;15858;48.338;11.078;2023-05-07T08:38:40;19.60;99.90
28677;DHT22;15858;48.338;11.078;2023-05-07T08:41:06;19.70;99.90
28677;DHT22;15858;48.338;11.078;2023-05-07T08:43:36;19.70;99.90
28677;DHT22;15858;48.338;11.078;2023-05-07T08:46:04;19.70;99.90
28677;DHT22;15858;48.338;11.078;2023-05-07T08:48:32;19.70;99.90
28677;DHT22;15858;48.338;11.078;2023-05-07T08:50:59;19.90;99.90
28677;DHT22;15858;48.338;11.078;2023-05-07T08:53:26;19.90;99.90
28677;DHT22;15858;48.338;11.078;2023-05-07T08:55:53;20.00;99.90
28677;DHT22;15858;48.338;11.078;2023-05-07T08:58:20;20.10;99.90
28677;DHT22;15858;48.338;11.078;2023-05-07T09:00:47;20.30;99.90
28677;DHT22;15858;48.338;11.078;2023-05-07T09:03:13;20.30;99.90
28677;DHT22;15858;48.338;11.078;2023-05-07T09:05:41;20.30;99.90
28677;DHT22;15858;48.338;11.078;2023-05-07T09:08:08;20.30;99.90
28677;DHT22;15858;48.338;11.078;2023-05-07T09:10:34;20.30;99.90
28677;DHT22;15858;48.338;11.078;2023-05-07T09:13:02;20.50;99.90
28677;DHT22;15858;48.338;11.078;2023-05-07T09:15:29;20.50;99.90
28677;DHT22;15858;48.338;11.078;2023-05-07T09:18:00;20.60;99.90
28677;DHT22;15858;48.338;11.078;2023-05-07T09:20:26;20.70;99.90
28677;DHT22;15858;48.338;11.078;2023-05-07T09:22:55;20.80;99.90
28677;DHT22;15858;48.338;11.078;2023-05-07T09:25:33;20.90;99.90
28677;DHT22;15858;48.338;11.078;2023-05-07T09:28:01;21.00;99.90
28677;DHT22;15858;48.338;11.078;2023-05-07T09:30:31;21.00;99.90
28677;DHT22;15858;48.338;11.078;2023-05-07T09:32:59;21.10;99.90
28677;DHT22;15858;48.338;11.078;2023-05-07T09:35:26;21.10;99.90
28677;DHT22;15858;48.338;11.078;2023-05-07T09:37:57;21.10;99.90
28677;DHT22;15858;48.338;11.078;2023-05-07T09:40:28;21.10;99.90
28677;DHT22;15858;48.338;11.078;2023-05-07T09:42:55;21.40;99.90
28677;DHT22;15858;48.338;11.078;2023-05-07T09:45:26;21.40;99.90
28677;DHT22;15858;48.338;11.078;2023-05-07T09:47:55;21.30;99.90
28677;DHT22;15858;48.338;11.078;2023-05-07T09:50:29;21.50;99.90
28677;DHT22;15858;48.338;11.078;2023-05-07T09:52:58;21.50;99.90
28677;DHT22;15858;48.338;11.078;2023-05-07T09:55:26;21.40;99.90
28677;DHT22;15858;48.338;11.078;2023-05-07T09:57:53;21.60;99.90
28677;DHT22;15858;48.338;11.078;2023-05-07T10:00:21;21.60;99.90
28677;DHT22;15858;48.338;11.078;2023-05-07T10:02:49;21.50;99.90
28677;DHT22;15858;48.338;11.078;2023-05-07T10:05:16;21.50;99.90
28677;DHT22;15858;48.338;11.078;2023-05-07T10:07:44;21.40;99.90
28677;DHT22;15858;48.338;11.078;2023-05-07T10:10:11;21.60;99.90
28677;DHT22;15858;48.338;11.078;2023-05-07T10:12:38;21.50;99.90
28677;DHT22;15858;48.338;11.078;2023-05-07T10:15:06;21.40;99.90
28677;DHT22;15858;48.338;11.078;2023-05-07T10:17:40;21.50;99.90
28677;DHT22;15858;48.338;11.078;2023-05-07T10:20:08;21.50;99.90
28677;DHT22;15858;48.338;11.078;2023-05-07T10:22:40;21.70;99.90
28677;DHT22;15858;48.338;11.078;2023-05-07T10:25:16;21.70;99.90
28677;DHT22;15858;48.338;11.078;2023-05-07T10:27:46;21.80;99.90
28677;DHT22;15858;48.338;11.078;2023-05-07T10:30:31;21.90;99.90
28677;DHT22;15858;48.338;11.078;2023-05-07T10:33:05;21.90;99.90
28677;DHT22;15858;48.338;11.078;2023-05-07T10:35:43;21.70;99.90
28677;DHT22;15858;48.338;11.078;2023-05-07T10:38:10;21.50;99.90
28677;DHT22;15858;48.338;11.078;2023-05-07T10:40:37;21.70;99.90
28677;DHT22;15858;48.338;11.078;2023-05-07T10:43:04;21.60;99.90
28677;DHT22;15858;48.338;11.078;2023-05-07T10:45:35;21.60;99.90
28677;DHT22;15858;48.338;11.078;2023-05-07T10:48:09;21.60;99.90
28677;DHT22;15858;48.338;11.078;2023-05-07T10:51:18;21.50;99.90
28677;DHT22;15858;48.338;11.078;2023-05-07T10:53:45;21.60;99.90
28677;DHT22;15858;48.338;11.078;2023-05-07T10:58:44;21.60;99.90
28677;DHT22;15858;48.338;11.078;2023-05-07T11:01:11;21.60;99.90
28677;DHT22;15858;48.338;11.078;2023-05-07T11:04:13;21.90;99.90
28677;DHT22;15858;48.338;11.078;2023-05-07T11:06:40;22.00;99.90
28677;DHT22;15858;48.338;11.078;2023-05-07T11:09:07;22.10;99.90
28677;DHT22;15858;48.338;11.078;2023-05-07T11:11:49;22.10;99.90
28677;DHT22;15858;48.338;11.078;2023-05-07T11:14:43;22.00;99.90
28677;DHT22;15858;48.338;11.078;2023-05-07T11:17:10;22.00;99.90
28677;DHT22;15858;48.338;11.078;2023-05-07T11:19:50;22.00;99.90
28677;DHT22;15858;48.338;11.078;2023-05-07T11:25:00;22.20;99.90
28677;DHT22;15858;48.338;11.078;2023-05-07T11:27:27;22.10;99.90
28677;DHT22;15858;48.338;11.078;2023-05-07T11:29:55;22.10;99.90
28677;DHT22;15858;48.338;11.078;2023-05-07T11:32:25;22.20;99.90
28677;DHT22;15858;48.338;11.078;2023-05-07T11:34:57;22.10;99.90
28677;DHT22;15858;48.338;11.078;2023-05-07T11:37:25;22.30;99.90
28677;DHT22;15858;48.338;11.078;2023-05-07T11:40:08;22.30;99.90
28677;DHT22;15858;48.338;11.078;2023-05-07T11:42:36;22.30;99.90
28677;DHT22;15858;48.338;11.078;2023-05-07T11:45:05;22.30;99.90
28677;DHT22;15858;48.338;11.078;2023-05-07T11:47:32;22.20;99.90
28677;DHT22;15858;48.338;11.078;2023-05-07T11:50:07;22.30;99.90
28677;DHT22;15858;48.338;11.078;2023-05-07T11:52:34;22.40;99.90
28677;DHT22;15858;48.338;11.078;2023-05-07T11:55:02;22.40;99.90
28677;DHT22;15858;48.338;11.078;2023-05-07T11:57:29;22.60;99.70
28677;DHT22;15858;48.338;11.078;2023-05-07T12:00:00;22.50;99.90
28677;DHT22;15858;48.338;11.078;2023-05-07T12:02:28;22.60;99.90
28677;DHT22;15858;48.338;11.078;2023-05-07T12:04:55;22.80;99.30
28677;DHT22;15858;48.338;11.078;2023-05-07T12:07:24;22.80;99.60
28677;DHT22;15858;48.338;11.078;2023-05-07T12:09:50;22.80;99.90
28677;DHT22;15858;48.338;11.078;2023-05-07T12:12:18;22.80;98.10
28677;DHT22;15858;48.338;11.078;2023-05-07T12:14:45;22.70;99.40
28677;DHT22;15858;48.338;11.078;2023-05-07T12:17:13;22.70;99.90
28677;DHT22;15858;48.338;11.078;2023-05-07T12:19:42;22.70;98.40
28677;DHT22;15858;48.338;11.078;2023-05-07T12:22:10;22.70;97.80
28677;DHT22;15858;48.338;11.078;2023-05-07T12:24:56;22.70;96.90
28677;DHT22;15858;48.338;11.078;2023-05-07T12:27:23;22.70;97.50
28677;DHT22;15858;48.338;11.078;2023-05-07T12:29:50;22.50;97.70
28677;DHT22;15858;48.338;11.078;2023-05-07T12:32:18;22.50;99.40
28677;DHT22;15858;48.338;11.078;2023-05-07T12:34:47;22.60;99.70
28677;DHT22;15858;48.338;11.078;2023-05-07T12:37:16;22.70;98.30
28677;DHT22;15858;48.338;11.078;2023-05-07T12:40:06;22.70;98.90
28677;DHT22;15858;48.338;11.078;2023-05-07T12:42:36;22.70;99.20
28677;DHT22;15858;48.338;11.078;2023-05-07T12:45:36;22.50;98.50
28677;DHT22;15858;48.338;11.078;2023-05-07T12:48:03;22.40;99.40
28677;DHT22;15858;48.338;11.078;2023-05-07T12:50:33;22.30;99.90
28677;DHT22;15858;48.338;11.078;2023-05-07T12:53:00;22.30;99.90
28677;DHT22;15858;48.338;11.078;2023-05-07T12:55:28;22.40;99.90
28677;DHT22;15858;48.338;11.078;2023-05-07T12:58:01;22.40;99.90
28677;DHT22;15858;48.338;11.078;2023-05-07T13:00:38;22.30;99.90
28677;DHT22;15858;48.338;11.078;2023-05-07T13:03:05;22.30;99.90
28677;DHT22;15858;48.338;11.078;2023-05-07T13:05:32;22.30;99.90
28677;DHT22;15858;48.338;11.078;2023-05-07T13:07:59;22.20;99.90
28677;DHT22;15858;48.338;11.078;2023-05-07T13:10:26;22.10;99.90
28677;DHT22;15858;48.338;11.078;2023-05-07T13:12:53;22.00;99.90
28677;DHT22;15858;48.338;11.078;2023-05-07T13:15:21;22.00;99.90
28677;DHT22;15858;48.338;11.078;2023-05-07T13:17:48;22.10;99.90
28677;DHT22;15858;48.338;11.078;2023-05-07T13:20:15;22.10;99.90
28677;DHT22;15858;48.338;11.078;2023-05-07T13:22:41;22.10;99.90
28677;DHT22;15858;48.338;11.078;2023-05-07T13:25:08;22.10;99.90
28677;DHT22;15858;48.338;11.078;2023-05-07T13:27:35;22.20;99.90
28677;DHT22;15858;48.338;11.078;2023-05-07T13:30:03;22.30;99.90
28677;DHT22;15858;48.338;11.078;2023-05-07T13:32:30;22.20;99.90
28677;DHT22;15858;48.338;11.078;2023-05-07T13:34:57;22.30;99.90
28677;DHT22;15858;48.338;11.078;2023-05-07T13:37:24;22.20;99.90
28677;DHT22;15858;48.338;11.078;2023-05-07T13:39:50;22.30;99.90
28677;DHT22;15858;48.338;11.078;2023-05-07T13:42:17;22.30;99.90
28677;DHT22;15858;48.338;11.078;2023-05-07T13:44:44;22.30;99.90
28677;DHT22;15858;48.338;11.078;2023-05-07T13:47:10;22.20;99.90
28677;DHT22;15858;48.338;11.078;2023-05-07T13:49:37;22.30;99.90
28677;DHT22;15858;48.338;11.078;2023-05-07T13:52:04;22.30;99.90
28677;DHT22;15858;48.338;11.078;2023-05-07T13:54:30;22.40;99.90
28677;DHT22;15858;48.338;11.078;2023-05-07T13:56:57;22.30;99.90
28677;DHT22;15858;48.338;11.078;2023-05-07T13:59:24;22.40;99.90
28677;DHT22;15858;48.338;11.078;2023-05-07T14:01:50;22.40;99.90
28677;DHT22;15858;48.338;11.078;2023-05-07T14:04:17;22.40;99.90
28677;DHT22;15858;48.338;11.078;2023-05-07T14:06:43;22.40;99.90
28677;DHT22;15858;48.338;11.078;2023-05-07T14:09:10;22.50;99.90
28677;DHT22;15858;48.338;11.078;2023-05-07T14:11:37;22.30;99.90
28677;DHT22;15858;48.338;11.078;2023-05-07T14:14:03;22.30;99.90
28677;DHT22;15858;48.338;11.078;2023-05-07T14:16:30;22.20;99.90
28677;DHT22;15858;48.338;11.078;2023-05-07T14:18:56;22.20;99.90
28677;DHT22;15858;48.338;11.078;2023-05-07T14:21:24;22.20;99.90
28677;DHT22;15858;48.338;11.078;2023-05-07T14:23:50;22.40;99.90
28677;DHT22;15858;48.338;11.078;2023-05-07T14:26:17;22.10;99.90
28677;DHT22;15858;48.338;11.078;2023-05-07T14:28:44;22.10;99.90
28677;DHT22;15858;48.338;11.078;2023-05-07T14:31:10;22.00;99.90
28677;DHT22;15858;48.338;11.078;2023-05-07T14:33:37;21.90;99.90
28677;DHT22;15858;48.338;11.078;2023-05-07T14:36:07;21.90;99.90
28677;DHT22;15858;48.338;11.078;2023-05-07T14:38:33;22.00;99.90
28677;DHT22;15858;48.338;11.078;2023-05-07T14:41:00;22.00;99.90
28677;DHT22;15858;48.338;11.078;2023-05-07T14:43:27;22.10;99.90
28677;DHT22;15858;48.338;11.078;2023-05-07T14:45:53;22.00;99.90
28677;DHT22;15858;48.338;11.078;2023-05-07T14:48:20;22.00;99.90
28677;DHT22;15858;48.338;11.078;2023-05-07T14:50:47;21.90;99.90
28677;DHT22;15858;48.338;11.078;2023-05-07T14:53:14;21.90;99.90
28677;DHT22;15858;48.338;11.078;2023-05-07T14:55:41;21.90;99.90
28677;DHT22;15858;48.338;11.078;2023-05-07T14:58:08;21.80;99.90
28677;DHT22;15858;48.338;11.078;2023-05-07T15:00:35;21.70;99.90
28677;DHT22;15858;48.338;11.078;2023-05-07T15:03:06;21.70;99.90
28677;DHT22;15858;48.338;11.078;2023-05-07T15:05:35;21.70;99.90
28677;DHT22;15858;48.338;11.078;2023-05-07T15:08:02;21.80;99.90
28677;DHT22;15858;48.338;11.078;2023-05-07T15:10:28;21.80;99.90
28677;DHT22;15858;48.338;11.078;2023-05-07T15:12:55;21.80;99.90
28677;DHT22;15858;48.338;11.078;2023-05-07T15:15:22;21.60;99.90
28677;DHT22;15858;48.338;11.078;2023-05-07T15:17:48;21.50;99.90
28677;DHT22;15858;48.338;11.078;2023-05-07T15:20:15;21.60;99.90
28677;DHT22;15858;48.338;11.078;2023-05-07T15:22:41;21.70;99.90
28677;DHT22;15858;48.338;11.078;2023-05-07T15:25:08;21.70;99.90